^^
Grace C. Lehan Memorial Weather Station Historical Data
Daily Summary for June 15, 2021 Units:  Metric    English   Both
Daily Weekly Monthly Yearly
  High: Low: Average:
Temperature: 29.8 °C 20.4 °C 24.6 °C
Dew Point: 24 °C 18.1 °C 21.3 °C
Humidity: 94% 67.8% 83%
Wind Speed: 4.3km/h 0km/h 0.5km/h
Wind Gust: 19.3km/h - -
Wind- - SSW
Pressure: 1016.5 hPa 1010.7 hPa -
Precipitation: 0.76 mm    
 
 
Tabular Data for June 15, 2021
Time Temperature Dew Point Pressure Wind Wind Speed Wind Gust Humidity Rainfall Rate (Hourly) solar
00:00 20.5 °C 18.1 °C 1015.1 hPa Calm     86% 0 mm 0 W/m2
00:09 20.5 °C 18.2 °C 1015.1 hPa Calm     86.5% 0 mm 0 W/m2
00:14 20.4 °C 18.2 °C 1015.1 hPa Calm     87% 0 mm 0 W/m2
00:19 20.4 °C 18.2 °C 1015.1 hPa Calm     87% 0 mm 0 W/m2
00:24 20.4 °C 18.2 °C 1015.1 hPa Calm     87% 0 mm 0 W/m2
00:29 20.4 °C 18.2 °C 1015.1 hPa Calm     87% 0 mm 0 W/m2
00:34 20.4 °C 18.2 °C 1015.1 hPa Calm     87% 0 mm 0 W/m2
00:39 20.4 °C 18.2 °C 1015.1 hPa Calm     87% 0 mm 0 W/m2
00:44 20.4 °C 18.2 °C 1015.1 hPa Calm     87% 0 mm 0 W/m2
00:49 20.4 °C 18.2 °C 1014.8 hPa Calm     87% 0 mm 0 W/m2
00:54 20.4 °C 18.3 °C 1014.8 hPa Calm     87.8% 0 mm 0 W/m2
00:59 20.4 °C 18.3 °C 1014.8 hPa Calm     88% 0 mm 0 W/m2
01:04 20.4 °C 18.3 °C 1014.8 hPa Calm     88% 0 mm 0 W/m2
01:09 20.4 °C 18.3 °C 1014.8 hPa Calm     88% 0 mm 0 W/m2
01:14 20.4 °C 18.4 °C 1014.4 hPa Calm     88% 0 mm 0 W/m2
01:19 20.4 °C 18.4 °C 1014.4 hPa Calm     88% 0 mm 0 W/m2
01:24 20.4 °C 18.4 °C 1014.4 hPa Calm     88% 0 mm 0 W/m2
01:29 20.5 °C 18.4 °C 1014.4 hPa Calm     88% 0 mm 0 W/m2
01:34 20.5 °C 18.4 °C 1014.4 hPa Calm     88.1% 0 mm 0 W/m2
01:39 20.6 °C 18.7 °C 1014.4 hPa Calm     89% 0 mm 0 W/m2
01:44 20.6 °C 18.7 °C 1014.4 hPa Calm     89% 0 mm 0 W/m2
01:49 20.6 °C 18.7 °C 1014.4 hPa Calm     89% 0 mm 0 W/m2
01:54 20.7 °C 18.8 °C 1014.4 hPa Calm     89% 0 mm 0 W/m2
01:59 20.7 °C 18.8 °C 1014.1 hPa Calm     89% 0 mm 0 W/m2
02:04 20.7 °C 18.8 °C 1014.1 hPa Calm     89% 0 mm 0 W/m2
02:09 20.7 °C 18.8 °C 1014.1 hPa Calm     89% 0 mm 0 W/m2
02:14 20.7 °C 18.8 °C 1014.1 hPa Calm     89% 0 mm 0 W/m2
02:19 20.7 °C 18.9 °C 1014.1 hPa Calm     89% 0 mm 0 W/m2
02:24 20.8 °C 18.9 °C 1014.1 hPa Calm     89% 0 mm 0 W/m2
02:29 20.8 °C 18.9 °C 1014.1 hPa Calm     89% 0 mm 0 W/m2
02:34 20.8 °C 18.9 °C 1014.1 hPa Calm     89% 0 mm 0 W/m2
02:39 20.8 °C 18.9 °C 1014.1 hPa Calm     89% 0 mm 0 W/m2
02:44 20.8 °C 19.1 °C 1014.1 hPa Calm     89.9% 0 mm 0 W/m2
02:49 20.8 °C 19.1 °C 1014.1 hPa Calm     90% 0 mm 0 W/m2
02:54 20.8 °C 19.1 °C 1014.1 hPa Calm     90% 0 mm 0 W/m2
02:59 20.8 °C 19.2 °C 1014.1 hPa Calm     90% 0 mm 0 W/m2
03:04 20.9 °C 19.2 °C 1014.1 hPa Calm     90% 0 mm 0 W/m2
03:09 20.9 °C 19.2 °C 1014.1 hPa Calm     90% 0 mm 0 W/m2
03:14 20.9 °C 19.2 °C 1014.1 hPa Calm     90% 0 mm 0 W/m2
03:19 20.9 °C 19.2 °C 1014.1 hPa Calm     90% 0 mm 0 W/m2
03:24 20.9 °C 19.2 °C 1013.8 hPa Calm     90% 0 mm 0 W/m2
03:29 20.9 °C 19.3 °C 1013.8 hPa Calm     90% 0 mm 0 W/m2
03:34 21 °C 19.4 °C 1013.8 hPa Calm     90.8% 0 mm 0 W/m2
03:39 21 °C 19.5 °C 1013.8 hPa Calm     91% 0 mm 0 W/m2
03:44 21 °C 19.4 °C 1013.8 hPa Calm     90.8% 0 mm 0 W/m2
03:49 21 °C 19.5 °C 1013.8 hPa Calm     91% 0 mm 0 W/m2
03:54 21.1 °C 19.5 °C 1013.8 hPa Calm     91% 0 mm 0 W/m2
03:59 21.1 °C 19.6 °C 1013.4 hPa Calm     91% 0 mm 0 W/m2
04:00 21.1 °C 19.6 °C 1013.4 hPa Calm     91% 0 mm 0 W/m2
04:09 21.2 °C 19.7 °C 1013.4 hPa Calm     91% 0 mm 0 W/m2
04:14 21.2 °C 19.7 °C 1013.4 hPa Calm     91% 0 mm 0 W/m2
04:19 21.2 °C 19.7 °C 1013.4 hPa Calm     91% 0 mm 0 W/m2
04:24 21.2 °C 19.7 °C 1013.4 hPa Calm     91% 0 mm 0 W/m2
04:29 21.2 °C 19.8 °C 1013.4 hPa Calm     91.7% 0 mm 0 W/m2
04:34 21.3 °C 19.9 °C 1013.4 hPa Calm     92% 0 mm 0 W/m2
04:39 21.3 °C 19.9 °C 1013.4 hPa Calm     92% 0 mm 0 W/m2
04:44 21.3 °C 20 °C 1013.4 hPa Calm     92% 0 mm 0 W/m2
04:49 21.4 °C 20.1 °C 1013.4 hPa Calm     92% 0 mm 0 W/m2
04:54 21.4 °C 20.1 °C 1013.4 hPa Calm     92% 0 mm 0 W/m2
04:59 21.4 °C 20.1 °C 1013.4 hPa Calm     92% 0 mm 0 W/m2
05:04 21.5 °C 20.3 °C 1013.4 hPa Calm   1.6 km/h 92.7% 0 mm 0 W/m2
05:09 21.6 °C 20.4 °C 1013.4 hPa Calm   1.6 km/h 93% 0 mm 0 W/m2
05:14 21.7 °C 20.6 °C 1013.4 hPa Calm   1.6 km/h 93% 0 mm 0 W/m2
05:19 21.8 °C 20.6 °C 1013.4 hPa Calm   1.6 km/h 93% 0 mm 0 W/m2
05:24 21.8 °C 20.7 °C 1013.4 hPa Calm   1.6 km/h 93% 0 mm 0 W/m2
05:29 21.8 °C 20.7 °C 1013.4 hPa Calm   1.6 km/h 93% 0 mm 0 W/m2
05:34 21.9 °C 20.7 °C 1013.4 hPa Calm   1.6 km/h 93% 0 mm 0 W/m2
05:39 21.9 °C 20.7 °C 1013.1 hPa Calm     93% 0 mm 0 W/m2
05:44 21.9 °C 20.9 °C 1013.1 hPa Calm     94% 0 mm 0 W/m2
05:49 21.9 °C 20.9 °C 1013.1 hPa Calm     94% 0 mm 0 W/m2
05:54 21.9 °C 20.9 °C 1013.4 hPa Calm     94% 0 mm 0 W/m2
05:59 21.9 °C 20.9 °C 1013.4 hPa Calm     94% 0 mm 0 W/m2
06:04 22 °C 21 °C 1013.4 hPa Calm     94% 0 mm 0 W/m2
06:09 22 °C 21 °C 1013.4 hPa Calm   1.6 km/h 94% 0 mm 0 W/m2
06:14 22 °C 21 °C 1013.4 hPa Calm   1.6 km/h 94% 0 mm 0 W/m2
06:19 22 °C 21 °C 1013.4 hPa Calm   1.6 km/h 94% 0 mm 0 W/m2
06:24 21.9 °C 20.9 °C 1013.4 hPa Calm   1.6 km/h 94% 0 mm 0 W/m2
06:29 21.9 °C 20.9 °C 1013.4 hPa Calm   1.6 km/h 94% 0 mm 0 W/m2
06:34 21.9 °C 20.9 °C 1013.4 hPa Calm   1.6 km/h 94% 0 mm 0 W/m2
06:39 21.9 °C 20.9 °C 1013.4 hPa Calm     94% 0 mm 0 W/m2
06:44 21.9 °C 20.9 °C 1013.4 hPa Calm     94% 0 mm 5 W/m2
06:49 21.9 °C 20.9 °C 1013.4 hPa Calm     94% 0 mm 5 W/m2
06:54 21.9 °C 20.9 °C 1013.4 hPa Calm     94% 0 mm 5 W/m2
06:59 22 °C 21 °C 1013.4 hPa Calm     94% 0 mm 7 W/m2
07:04 22 °C 21 °C 1013.4 hPa Calm     94% 0 mm 12 W/m2
07:09 22.1 °C 21.1 °C 1013.4 hPa Calm     94% 0 mm 12 W/m2
07:14 22.1 °C 21.1 °C 1013.4 hPa Calm     94% 0 mm 12 W/m2
07:19 22.2 °C 21.1 °C 1013.4 hPa Calm     93.8% 0 mm 16 W/m2
07:24 22.2 °C 21 °C 1013.4 hPa Calm     93% 0 mm 19 W/m2
07:29 22.2 °C 21 °C 1013.4 hPa Calm     93% 0 mm 32 W/m2
07:34 22.3 °C 21.1 °C 1013.4 hPa Calm     93% 0 mm 32 W/m2
07:39 22.3 °C 21.1 °C 1013.4 hPa Calm     93% 0 mm 44 W/m2
07:44 22.3 °C 21.2 °C 1013.4 hPa Calm     93% 0 mm 40 W/m2
07:49 22.4 °C 21.2 °C 1013.4 hPa Calm     93% 0 mm 44 W/m2
07:54 22.4 °C 21.3 °C 1013.4 hPa Calm     93% 0 mm 47 W/m2
07:59 22.6 °C 21.3 °C 1013.4 hPa Calm     93% 0 mm 49 W/m2
08:00 22.6 °C 21.4 °C 1013.4 hPa Calm     93% 0 mm 46 W/m2
08:09 22.6 °C 21.3 °C 1013.4 hPa Calm     92.5% 0 mm 46 W/m2
08:14 22.7 °C 21.4 °C 1013.4 hPa SSW 0.2 km/h 6.4 km/h 92.8% 0 mm 58 W/m2
08:19 22.7 °C 21.4 °C 1013.4 hPa Calm   6.4 km/h 92.2% 0 mm 63 W/m2
08:24 22.8 °C 21.4 °C 1013.4 hPa Calm   6.4 km/h 92% 0 mm 62 W/m2
08:29 22.8 °C 21.4 °C 1013.4 hPa Calm   6.4 km/h 92% 0 mm 47 W/m2
08:34 22.9 °C 21.5 °C 1013.4 hPa Calm   6.4 km/h 92% 0 mm 69 W/m2
08:39 22.9 °C 21.6 °C 1013.4 hPa Calm     92% 0 mm 69 W/m2
08:44 23 °C 21.6 °C 1013.4 hPa Calm     92% 0 mm 81 W/m2
08:49 23.1 °C 21.7 °C 1013.4 hPa Calm   1.6 km/h 92% 0 mm 113 W/m2
08:54 23.1 °C 21.7 °C 1013.4 hPa Calm   1.6 km/h 92% 0 mm 116 W/m2
08:59 23.2 °C 21.8 °C 1013.4 hPa Calm   1.6 km/h 92% 0 mm 83 W/m2
09:04 23.3 °C 21.7 °C 1013.4 hPa Calm   1.6 km/h 91% 0 mm 102 W/m2
09:09 23.3 °C 21.8 °C 1013.4 hPa Calm   1.6 km/h 91.2% 0 mm 130 W/m2
09:14 23.4 °C 21.9 °C 1013.4 hPa Calm   1.6 km/h 91.3% 0 mm 128 W/m2
09:19 23.6 °C 22 °C 1013.4 hPa Calm   1.6 km/h 91% 0 mm 223 W/m2
09:24 23.7 °C 22.1 °C 1013.4 hPa Calm   1.6 km/h 91% 0 mm 223 W/m2
09:29 23.8 °C 22.1 °C 1013.4 hPa Calm   1.6 km/h 90.2% 0 mm 221 W/m2
09:34 23.9 °C 22.2 °C 1013.4 hPa Calm   1.6 km/h 90% 0 mm 204 W/m2
09:39 24.1 °C 22.3 °C 1013.4 hPa Calm   3.2 km/h 90% 0 mm 236 W/m2
09:44 24.2 °C 22.4 °C 1013.4 hPa Calm   3.2 km/h 89.7% 0 mm 237 W/m2
09:49 24.4 °C 22.6 °C 1013.4 hPa Calm   3.2 km/h 89.1% 0 mm 237 W/m2
09:54 24.6 °C 22.6 °C 1013.4 hPa Calm   3.2 km/h 88.2% 0 mm 316 W/m2
09:59 24.8 °C 22.7 °C 1013.4 hPa Calm   3.2 km/h 87.9% 0 mm 221 W/m2
10:04 25.1 °C 22.8 °C 1013.4 hPa Calm   3.2 km/h 87.2% 0 mm 403 W/m2
10:09 25.3 °C 22.8 °C 1013.4 hPa Calm     86.1% 0 mm 304 W/m2
10:14 25.4 °C 22.8 °C 1013.4 hPa Calm     85.5% 0 mm 304 W/m2
10:19 25.7 °C 22.9 °C 1013.1 hPa Calm     85% 0 mm 557 W/m2
10:24 25.9 °C 23 °C 1013.4 hPa SW 0.2 km/h 3.2 km/h 84.1% 0 mm 564 W/m2
10:29 26.2 °C 23.1 °C 1013.1 hPa SW 0.2 km/h 3.2 km/h 83% 0 mm 612 W/m2
10:34 26.6 °C 23.3 °C 1013.4 hPa SW 0.2 km/h 3.2 km/h 82.1% 0 mm 612 W/m2
10:39 26.9 °C 23.3 °C 1013.4 hPa SW 0.2 km/h 4.8 km/h 80.8% 0 mm 577 W/m2
10:44 27 °C 23.2 °C 1013.4 hPa Calm   6.4 km/h 79.5% 0 mm 299 W/m2
10:49 27.1 °C 23.2 °C 1013.1 hPa WSW 1 km/h 14.5 km/h 79.6% 0 mm 239 W/m2
10:54 27.1 °C 23.2 °C 1013.1 hPa Calm   14.5 km/h 79.6% 0 mm 464 W/m2
10:59 27.2 °C 23.4 °C 1013.1 hPa SSE 0.2 km/h 14.5 km/h 80.2% 0 mm 279 W/m2
11:04 27.2 °C 23.3 °C 1013.1 hPa South 0.3 km/h 14.5 km/h 79.1% 0 mm 629 W/m2
11:09 27.4 °C 23.2 °C 1013.1 hPa SSW 0.3 km/h 6.4 km/h 78.1% 0 mm 643 W/m2
11:10 27.4 °C 23.3 °C 1013.1 hPa Calm   6.4 km/h 78% 0 mm 643 W/m2
11:30 28.2 °C 23.8 °C 1013.1 hPa Calm   8 km/h 77% 0 mm 610 W/m2
12:04 28.6 °C 23.9 °C 1013.1 hPa Calm   8 km/h 75.9% 0 mm 610 W/m2
12:09 28.8 °C 24 °C 1013.1 hPa WSW 1.6 km/h 8 km/h 75.5% 0 mm 185 W/m2
12:14 29 °C 23.8 °C 1013.1 hPa WSW 1.1 km/h 8 km/h 73.8% 0 mm 234 W/m2
12:19 29.2 °C 23.8 °C 1013.1 hPa WSW 1 km/h 8 km/h 72.8% 0 mm 294 W/m2
12:24 29.3 °C 23.8 °C 1012.8 hPa WSW 0.5 km/h 8 km/h 72.1% 0 mm 297 W/m2
12:29 29.4 °C 23.8 °C 1012.8 hPa South 0.5 km/h 8 km/h 71.8% 0 mm 318 W/m2
12:34 29.3 °C 23.5 °C 1012.8 hPa South 0.3 km/h 8 km/h 71% 0 mm 346 W/m2
12:39 29.2 °C 23.4 °C 1012.8 hPa SSE 0.5 km/h 6.4 km/h 71% 0 mm 274 W/m2
12:44 29.1 °C 23.6 °C 1012.4 hPa South 1 km/h 6.4 km/h 71.8% 0 mm 274 W/m2
12:49 29.1 °C 23.5 °C 1012.4 hPa SW 2.1 km/h 11.3 km/h 71.9% 0 mm 243 W/m2
12:54 29.1 °C 23.6 °C 1012.4 hPa SW 0.5 km/h 11.3 km/h 71.9% 0 mm 229 W/m2
12:59 29.1 °C 23.7 °C 1012.4 hPa SW 0.2 km/h 11.3 km/h 72.5% 0 mm 257 W/m2
13:04 29.2 °C 23.7 °C 1012.4 hPa WSW 0.6 km/h 11.3 km/h 72.3% 0 mm 272 W/m2
13:09 29.2 °C 23.5 °C 1012.1 hPa SW 1.3 km/h 8 km/h 71.4% 0 mm 272 W/m2
13:14 29.3 °C 23.5 °C 1012.1 hPa South 0.8 km/h 8 km/h 71.2% 0 mm 230 W/m2
13:19 29.2 °C 23.4 °C 1012.1 hPa South 1.3 km/h 8 km/h 71% 0 mm 234 W/m2
13:24 29.1 °C 23.5 °C 1011.7 hPa SSW 1.4 km/h 8 km/h 71.8% 0 mm 234 W/m2
13:29 29.1 °C 23.5 °C 1011.7 hPa SSW 0.6 km/h 8 km/h 72% 0 mm 225 W/m2
13:34 29.1 °C 23.5 °C 1011.7 hPa SSW 1.9 km/h 8 km/h 72% 0 mm 278 W/m2
13:39 29.1 °C 23.6 °C 1011.7 hPa South 0.8 km/h 6.4 km/h 72.2% 0 mm 193 W/m2
13:44 29.2 °C 23.4 °C 1011.4 hPa South 3.1 km/h 9.7 km/h 71.3% 0 mm 181 W/m2
13:49 29.2 °C 23.4 °C 1011.4 hPa South 4 km/h 14.5 km/h 71.3% 0 mm 167 W/m2
13:54 29.2 °C 23.3 °C 1011.1 hPa South 2.4 km/h 14.5 km/h 70.9% 0 mm 148 W/m2
13:59 29.1 °C 23.4 °C 1011.1 hPa South 1.3 km/h 16.1 km/h 71.2% 0 mm 149 W/m2
14:04 29.2 °C 23.6 °C 1011.1 hPa South 2.3 km/h 16.1 km/h 71.7% 0 mm 160 W/m2
14:09 29.2 °C 23.2 °C 1011.1 hPa South 2.1 km/h 9.7 km/h 70.3% 0 mm 139 W/m2
14:14 29.2 °C 23.2 °C 1011.1 hPa South 4.3 km/h 11.3 km/h 70.2% 0 mm 178 W/m2
14:19 29.2 °C 23.1 °C 1010.7 hPa SSW 3.4 km/h 11.3 km/h 69.7% 0 mm 490 W/m2
14:24 29.2 °C 23.1 °C 1011.1 hPa South 2.3 km/h 11.3 km/h 69.5% 0 mm 640 W/m2
14:29 29.3 °C 22.9 °C 1011.1 hPa South 3.2 km/h 19.3 km/h 68.6% 0 mm 517 W/m2
14:34 29.3 °C 22.9 °C 1011.1 hPa SSW 1.9 km/h 19.3 km/h 68.8% 0 mm 292 W/m2
14:39 29.3 °C 22.8 °C 1011.1 hPa SW 2.1 km/h 14.5 km/h 68.4% 0 mm 241 W/m2
14:44 29.2 °C 22.8 °C 1011.1 hPa SW 1.6 km/h 14.5 km/h 68.2% 0 mm 330 W/m2
14:49 29.2 °C 22.8 °C 1011.1 hPa South 1.4 km/h 14.5 km/h 68.2% 0 mm 485 W/m2
14:54 29.3 °C 22.9 °C 1011.1 hPa SSW 1 km/h 14.5 km/h 68.7% 0 mm 387 W/m2
14:59 29.3 °C 22.8 °C 1011.1 hPa South 1.3 km/h 14.5 km/h 68% 0 mm 478 W/m2
15:04 29.3 °C 22.9 °C 1011.1 hPa South 0.3 km/h 14.5 km/h 68.3% 0 mm 362 W/m2
15:09 29.4 °C 23 °C 1011.1 hPa South 1.6 km/h 8 km/h 68.6% 0 mm 403 W/m2
15:14 29.4 °C 23.2 °C 1011.1 hPa SSW 0.8 km/h 8 km/h 68.9% 0 mm 283 W/m2
15:19 29.5 °C 23.2 °C 1011.1 hPa SSW 0.2 km/h 8 km/h 68.7% 0 mm 461 W/m2
15:24 29.6 °C 23.1 °C 1011.1 hPa SSW 0.8 km/h 8 km/h 68.3% 0 mm 221 W/m2
15:29 29.6 °C 23.2 °C 1011.1 hPa SSW 0.3 km/h 8 km/h 68.8% 0 mm 362 W/m2
15:34 29.6 °C 23.1 °C 1011.1 hPa SSW 1.9 km/h 9.7 km/h 68.3% 0 mm 432 W/m2
15:39 29.6 °C 23.1 °C 1011.1 hPa Calm   9.7 km/h 68.1% 0 mm 515 W/m2
15:44 29.6 °C 23.3 °C 1011.1 hPa South 1.4 km/h 9.7 km/h 68.6% 0 mm 564 W/m2
15:49 29.8 °C 23.3 °C 1011.1 hPa South 1.3 km/h 9.7 km/h 68.4% 0 mm 508 W/m2
15:54 29.8 °C 23.3 °C 1011.1 hPa SSW 1.4 km/h 9.7 km/h 67.8% 0 mm 508 W/m2
15:59 29.8 °C 23.2 °C 1011.1 hPa SW 0.8 km/h 9.7 km/h 68% 0 mm 132 W/m2
16:04 29.6 °C 23.1 °C 1011.1 hPa SW 0.5 km/h 1.6 km/h 68% 0 mm 121 W/m2
16:09 29.6 °C 23.1 °C 1011.1 hPa South 2.6 km/h 9.7 km/h 68.2% 0 mm 121 W/m2
16:14 29.5 °C 23.1 °C 1011.1 hPa SW 1 km/h 9.7 km/h 68.6% 0 mm 120 W/m2
16:19 29.5 °C 23.1 °C 1011.1 hPa SSW 2.1 km/h 9.7 km/h 68.7% 0 mm 109 W/m2
16:24 29.5 °C 23.1 °C 1011.1 hPa SSW 1.9 km/h 9.7 km/h 68.5% 0 mm 90 W/m2
16:29 29.5 °C 23.1 °C 1011.1 hPa SSW 1.6 km/h 9.7 km/h 68.7% 0 mm 84 W/m2
16:34 29.4 °C 23.2 °C 1011.4 hPa SSW 1.3 km/h 9.7 km/h 69% 0 mm 83 W/m2
16:39 29.4 °C 23 °C 1011.4 hPa South 1.6 km/h 11.3 km/h 68.4% 0 mm 77 W/m2
16:44 29.4 °C 23.1 °C 1011.1 hPa South 1.8 km/h 11.3 km/h 68.8% 0 mm 70 W/m2
16:49 29.3 °C 23 °C 1011.1 hPa SSW 2.6 km/h 14.5 km/h 68.8% 0 mm 62 W/m2
16:54 29.2 °C 22.8 °C 1011.1 hPa SSW 1.4 km/h 14.5 km/h 68.8% 0 mm 51 W/m2
16:59 29 °C 22.8 °C 1011.1 hPa SSW 2.4 km/h 14.5 km/h 69% 0 mm 49 W/m2
17:04 28.8 °C 22.8 °C 1011.1 hPa South 1.9 km/h 14.5 km/h 70% 0 mm 53 W/m2
17:09 28.8 °C 22.9 °C 1011.1 hPa SSW 0.8 km/h 11.3 km/h 70.5% 0 mm 51 W/m2
17:14 28.7 °C 23 °C 1011.1 hPa SSW 0.6 km/h 11.3 km/h 71.2% 0 mm 47 W/m2
17:19 28.7 °C 22.9 °C 1011.1 hPa SSW 0.8 km/h 14.5 km/h 71.2% 0 mm 49 W/m2
17:24 28.6 °C 22.8 °C 1011.1 hPa South 2.4 km/h 14.5 km/h 71% 0 mm 49 W/m2
17:29 28.5 °C 22.8 °C 1011.4 hPa South 1.4 km/h 14.5 km/h 71.4% 0 mm 49 W/m2
17:34 28.4 °C 22.9 °C 1011.4 hPa South 1 km/h 14.5 km/h 71.8% 0 mm 40 W/m2
17:39 28.4 °C 22.8 °C 1011.4 hPa SSW 0.3 km/h 6.4 km/h 72% 0 mm 40 W/m2
17:44 28.3 °C 23.1 °C 1011.7 hPa SSW 0.2 km/h 6.4 km/h 73% 0 mm 40 W/m2
17:49 28.3 °C 22.9 °C 1011.7 hPa SSW 1.1 km/h 6.4 km/h 72.7% 0 mm 35 W/m2
17:54 28.2 °C 22.8 °C 1011.7 hPa SW 0.8 km/h 9.7 km/h 72.6% 0 mm 32 W/m2
17:59 28.1 °C 22.6 °C 1011.7 hPa SW 2.4 km/h 16.1 km/h 72.2% 0 mm 28 W/m2
18:04 28 °C 22.2 °C 1012.1 hPa SW 2.4 km/h 16.1 km/h 71% 0 mm 23 W/m2
18:09 27.8 °C 22 °C 1012.1 hPa SW 3.9 km/h 17.7 km/h 70.6% 0 mm 23 W/m2
18:14 27.7 °C 21.8 °C 1012.1 hPa WSW 0.5 km/h 17.7 km/h 70.4% 0 mm 19 W/m2
18:19 27.7 °C 22 °C 1011.7 hPa South 1 km/h 17.7 km/h 71.4% 0 mm 16 W/m2
18:24 27.5 °C 22 °C 1012.1 hPa SW 0.8 km/h 17.7 km/h 71.8% 0 mm 12 W/m2
18:29 27.4 °C 22 °C 1012.1 hPa Calm   17.7 km/h 72.3% 0 mm 7 W/m2
18:34 27.3 °C 22.1 °C 1012.1 hPa Calm   17.7 km/h 73% 0 mm 7 W/m2
18:39 27.2 °C 21.9 °C 1012.1 hPa SSW 0.6 km/h 8 km/h 73% 0 mm 5 W/m2
18:44 27.1 °C 21.8 °C 1012.4 hPa South 0.3 km/h 8 km/h 73.2% 0 mm 5 W/m2
18:49 26.9 °C 21.9 °C 1012.4 hPa SSW 0.5 km/h 8 km/h 74% 0 mm 0 W/m2
18:54 26.8 °C 21.8 °C 1012.8 hPa SW 0.6 km/h 8 km/h 74% 0 mm 0 W/m2
18:59 26.7 °C 21.7 °C 1012.8 hPa SSW 0.6 km/h 8 km/h 74% 0 mm 0 W/m2
19:04 26.6 °C 21.6 °C 1012.8 hPa SW 0.8 km/h 14.5 km/h 74% 0 mm 0 W/m2
19:09 26.5 °C 21.7 °C 1012.8 hPa South 0.6 km/h 14.5 km/h 74.9% 0 mm 0 W/m2
19:14 26.4 °C 21.6 °C 1013.1 hPa South 0.5 km/h 14.5 km/h 75% 0 mm 0 W/m2
19:19 26.3 °C 21.6 °C 1013.1 hPa Calm   14.5 km/h 75.6% 0 mm 0 W/m2
19:24 26.2 °C 21.6 °C 1013.1 hPa SSW 0.6 km/h 14.5 km/h 76% 0 mm 0 W/m2
19:29 26.1 °C 21.7 °C 1013.1 hPa South 0.2 km/h 14.5 km/h 77% 0 mm 0 W/m2
19:34 26 °C 21.7 °C 1013.1 hPa Calm   14.5 km/h 77.5% 0 mm 0 W/m2
19:39 25.9 °C 21.8 °C 1013.1 hPa Calm     78.1% 0 mm 0 W/m2
19:44 25.8 °C 21.9 °C 1013.4 hPa Calm     79% 0 mm 0 W/m2
19:49 25.7 °C 21.8 °C 1013.4 hPa Calm     79% 0 mm 0 W/m2
19:54 25.7 °C 21.9 °C 1013.4 hPa Calm     79.9% 0 mm 0 W/m2
19:59 25.6 °C 21.8 °C 1013.8 hPa Calm     80% 0 mm 0 W/m2
20:00 25.5 °C 21.8 °C 1013.8 hPa Calm     80% 0 mm 0 W/m2
20:09 25.4 °C 21.9 °C 1013.8 hPa Calm     81% 0 mm 0 W/m2
20:14 25.3 °C 21.9 °C 1013.8 hPa Calm     81.6% 0 mm 0 W/m2
20:19 25.3 °C 22 °C 1014.1 hPa Calm     82% 0 mm 0 W/m2
20:24 25.2 °C 21.9 °C 1014.4 hPa West 1.1 km/h 6.4 km/h 82% 0 mm 0 W/m2
20:29 25.2 °C 21.8 °C 1014.8 hPa WNW 2.3 km/h 9.7 km/h 81.8% 0 mm 0 W/m2
20:34 25.1 °C 21.5 °C 1014.8 hPa NW 1.8 km/h 14.5 km/h 80.5% 0 mm 0 W/m2
20:39 25 °C 20.8 °C 1014.8 hPa NNW 1.9 km/h 14.5 km/h 77.2% 0 mm 0 W/m2
20:44 24.9 °C 20.3 °C 1015.1 hPa NNW 1 km/h 14.5 km/h 75.1% 0 mm 0 W/m2
20:49 24.9 °C 20 °C 1015.1 hPa NW 1.3 km/h 14.5 km/h 74% 0 mm 0 W/m2
20:54 24.9 °C 20.1 °C 1015.1 hPa NW 1.4 km/h 14.5 km/h 74.2% 0 mm 0 W/m2
20:59 24.9 °C 20 °C 1015.5 hPa WNW 1.8 km/h 14.5 km/h 74% 0 mm 0 W/m2
21:04 24.9 °C 19.9 °C 1015.5 hPa WNW 0.3 km/h 14.5 km/h 73.7% 0 mm 0 W/m2
21:09 24.8 °C 20.3 °C 1015.8 hPa WNW 0.6 km/h 4.8 km/h 75.9% 0.51 mm 0 W/m2
21:14 24.7 °C 20.7 °C 1015.8 hPa Calm   4.8 km/h 78.1% 0.76 mm 0 W/m2
21:19 24.5 °C 20.7 °C 1015.8 hPa Calm   4.8 km/h 79.3% 0.76 mm 0 W/m2
21:24 24.3 °C 20.7 °C 1015.8 hPa Calm   4.8 km/h 80.5% 0.76 mm 0 W/m2
21:29 24 °C 20.7 °C 1015.8 hPa Calm   4.8 km/h 81.6% 0.76 mm 0 W/m2
21:34 23.7 °C 20.4 °C 1015.8 hPa Calm   4.8 km/h 82.1% 0.76 mm 0 W/m2
21:39 23.4 °C 20.4 °C 1015.5 hPa Calm     83.3% 0.76 mm 0 W/m2
21:44 23.3 °C 20.4 °C 1015.8 hPa Calm     84% 0.76 mm 0 W/m2
21:49 23.1 °C 20.3 °C 1015.8 hPa Calm     84.1% 0.76 mm 0 W/m2
21:54 22.9 °C 20.2 °C 1015.8 hPa Calm     85.1% 0.76 mm 0 W/m2
21:59 22.7 °C 20.3 °C 1015.8 hPa Calm     86% 0.76 mm 0 W/m2
22:04 22.6 °C 20.3 °C 1016.1 hPa Calm     86.9% 0.76 mm 0 W/m2
22:09 22.4 °C 20.3 °C 1016.1 hPa Calm     87.7% 0.76 mm 0 W/m2
22:14 22.3 °C 20.3 °C 1016.1 hPa Calm     88.3% 0.76 mm 0 W/m2
22:19 22.2 °C 20.3 °C 1016.1 hPa Calm     89% 0.76 mm 0 W/m2
22:24 22.1 °C 20.3 °C 1016.1 hPa Calm     89.6% 0.76 mm 0 W/m2
22:29 22.1 °C 20.3 °C 1016.1 hPa Calm     90% 0.76 mm 0 W/m2
22:34 22 °C 20.3 °C 1016.1 hPa Calm   1.6 km/h 90.1% 0.76 mm 0 W/m2
22:39 21.9 °C 20.4 °C 1016.1 hPa Calm   1.6 km/h 91% 0 mm 0 W/m2
22:44 21.8 °C 20.2 °C 1016.1 hPa Calm   1.6 km/h 90.4% 0 mm 0 W/m2
22:49 21.7 °C 20.1 °C 1016.5 hPa Calm   1.6 km/h 90.4% 0 mm 0 W/m2
22:54 21.7 °C 20.2 °C 1016.5 hPa Calm   1.6 km/h 91% 0 mm 0 W/m2
22:59 21.7 °C 20.2 °C 1016.5 hPa Calm   1.6 km/h 91% 0 mm 0 W/m2
23:04 21.7 °C 20.2 °C 1016.5 hPa Calm   1.6 km/h 91% 0 mm 0 W/m2
23:09 21.7 °C 20.2 °C 1016.5 hPa Calm     91% 0 mm 0 W/m2
23:14 21.7 °C 20.2 °C 1016.5 hPa Calm     91% 0 mm 0 W/m2
23:19 21.6 °C 20.1 °C 1016.5 hPa Calm     91% 0 mm 0 W/m2
23:24 21.6 °C 20 °C 1016.5 hPa Calm     91% 0 mm 0 W/m2
23:29 21.5 °C 19.9 °C 1016.1 hPa Calm     91% 0 mm 0 W/m2
23:34 21.4 °C 19.9 °C 1016.1 hPa Calm     91% 0 mm 0 W/m2
23:39 21.3 °C 19.8 °C 1015.8 hPa Calm     90.6% 0 mm 0 W/m2
23:44 21.3 °C 19.6 °C 1016.1 hPa Calm     90% 0 mm 0 W/m2
23:49 21.3 °C 19.6 °C 1015.8 hPa Calm     90% 0 mm 0 W/m2
23:54 21.3 °C 19.7 °C 1016.1 hPa Calm     90.6% 0 mm 0 W/m2
23:59 21.2 °C 19.7 °C 1015.8 hPa Calm     91% 0 mm 0 W/m2
Hartford County Weather
Compliments of Weather Underground - 2 mb